Wetterstation Vordersexau
Wetterdaten: April 2012
Datum Temp. A. Feuchte A. Luftdruck Regen Wind Richtung Taupunkt Windchill Windben
01.04.2012 10,3 C 47 % 1012,8 hPa 0,0 l/m 3,7 km/h N-NO -1,3 C 9,8 C 2,1 km/h
02.04.2012 10,3 C 50 % 1007,6 hPa 0,0 l/m 1,1 km/h O-SO -1,1 C 10,1 C 0,6 km/h
03.04.2012 11,5 C 67 % 1002,3 hPa 1,8 l/m 11,5 km/h O-SO 5,0 C 9,0 C 6,4 km/h
04.04.2012 11,0 C 80 % 1005,7 hPa 2,5 l/m 5,5 km/h NO 7,7 C 9,6 C 3,1 km/h
05.04.2012 8,7 C 83 % 1008,9 hPa 9,3 l/m 0,3 km/h W 6,0 C 8,7 C 0,2 km/h
06.04.2012 9,0 C 79 % 1008,3 hPa 0,4 l/m 0,9 km/h SO 5,4 C 8,9 C 0,5 km/h
07.04.2012 8,3 C 72 % 1004,5 hPa 0,0 l/m 0,5 km/h O-NO 3,2 C 8,3 C 0,3 km/h
08.04.2012 6,2 C 59 % 1011,2 hPa 0,0 l/m 1,5 km/h N-NO -1,7 C 6,0 C 0,8 km/h
09.04.2012 5,6 C 78 % 1008,2 hPa 0,7 l/m 8,2 km/h O-NO 2,2 C 2,8 C 4,5 km/h
10.04.2012 13,2 C 66 % 997,9 hPa 2,1 l/m 8,1 km/h W-SW 6,2 C 11,5 C 4,5 km/h
11.04.2012 9,4 C 75 % 999,5 hPa 1,4 l/m 10,7 km/h W-SW 4,9 C 6,2 C 5,9 km/h
12.04.2012 7,7 C 78 % 1001,7 hPa 5,7 l/m 8,1 km/h O-SO 3,9 C 5,4 C 4,5 km/h
13.04.2012 9,3 C 69 % 1002,1 hPa 0,0 l/m 1,7 km/h SO 3,4 C 9,2 C 0,9 km/h
14.04.2012 9,5 C 68 % 998,8 hPa 0,0 l/m 1,1 km/h N-NO 3,3 C 9,3 C 0,6 km/h
15.04.2012 9,1 C 74 % 1001,4 hPa 3,2 l/m 1,1 km/h N-NO 4,6 C 8,9 C 0,6 km/h
16.04.2012 6,1 C 81 % 1013,1 hPa 1,4 l/m 5,2 km/h N-NO 3,1 C 4,5 C 2,9 km/h
17.04.2012 8,0 C 65 % 1009,9 hPa 0,0 l/m 3,9 km/h O-NO 1,2 C 7,2 C 2,2 km/h
18.04.2012 10,0 C 66 % 996,8 hPa 0,7 l/m 14,8 km/h S-SW 3,5 C 5,5 C 8,2 km/h
19.04.2012 10,0 C 68 % 992,0 hPa 1,1 l/m 10,3 km/h SO 4,3 C 7,2 C 5,7 km/h
20.04.2012 9,6 C 70 % 997,4 hPa 0,0 l/m 14,3 km/h SW 4,1 C 5,8 C 7,9 km/h
21.04.2012 9,5 C 74 % 1001,8 hPa 7,8 l/m 13,8 km/h W-SW 5,1 C 5,6 C 7,7 km/h
22.04.2012 8,8 C 76 % 1007,8 hPa 0,7 l/m 20,6 km/h SW 4,6 C 2,4 C 11,4 km/h
23.04.2012 10,0 C 72 % 1003,6 hPa 3,6 l/m 12,2 km/h W-SW 4,8 C 6,5 C 6,8 km/h
24.04.2012 8,2 C 78 % 998,2 hPa 1,4 l/m 21,6 km/h W-SW 4,6 C 1,7 C 12,0 km/h
25.04.2012 12,7 C 62 % 1002,6 hPa 0,0 l/m 11,9 km/h S-SW 5,0 C 9,7 C 6,6 km/h
26.04.2012 15,3 C 59 % 1006,1 hPa 0,0 l/m 5,4 km/h O-SO 6,3 C 14,0 C 3,0 km/h
27.04.2012 15,8 C 66 % 1013,3 hPa 0,0 l/m 1,2 km/h O-NO 8,7 C 15,7 C 0,7 km/h
28.04.2012 22,5 C 54 % 1008,4 hPa 0,0 l/m 8,7 km/h NW 10,9 C 21,7 C 4,8 km/h
29.04.2012 20,6 C 49 % 1005,0 hPa 0,0 l/m 11,5 km/h N-NO 8,9 C 19,3 C 6,4 km/h
30.04.2012 16,7 C 73 % 1010,6 hPa 0,0 l/m 3,9 km/h W 11,6 C 16,1 C 2,2 km/h
Min-Datum 02.04.12 02.04.12 19.04.12 16 Tage 01.04.12 - 02.04.12 18.04.12 01.04.12
Min-Zeit 05:30 17:30 02:30 - 02:30 - 05:30 02:30 02:30
Minimum -1,2 C 21 % 990,9 hPa - 0,0 km/h - -5,2 C -6,2 C 0,0 km/h
Max-Datum 28.04.12 12.04.12 16.04.12 05.04.12 22.04.12 - 30.04.12 28.04.12 22.04.12
Max-Zeit 17:30 06:30 21:30 17:30 14:30 - 15:30 17:30 14:30
Maximum 35,9 C 86 % 1017,0 hPa 9,3 l/m 60,3 km/h
SW
- 16,2 C 35,9 C 33,5 km/h
SW
Durchschnitt 10,8 C 69 % 1004,6 hPa #43,8 l/m 7,4 km/h W-SW 4,6 C 8,9 C 4,1 km/h

Durchschnitt Minimum Temp.4,7 C
Durchschnitt Maximum Temp.18,7 C
www.sexauwetter.de